Felker Army Air Field
KFAF : now visible

Airfield :











YOU CAN JOIN US ON...

 
LOGIN :

Register | Disclaimer

   EN    FR    IT 

 









Legend :    VFR   Marginal VFR   IFR   Intensive IFR   Very Intensive IFR
Visi :
Ceiling :
>= 8 km
>= 3000ft
5 to 8 km
1000 to 3000 ft
1500m to 5 km
500 to 1000 ft
800 to 1500m
200 to 500 ft
< 800m
< 200 ft
Symbols :   Thunderstorms  Fog  Heavy snow  Heavy precipitations  Wind > 20 kt






- Airport Elevation : 12 ft


KFAF - Felker Army Air Field

CURRENT METAR :
  • 220156Z AUTO 34008G18KT 10SM SCT100 10/M03 A2988 RMK AO2 SLP121 T00991027 $

EXPIRED METARs :
  • 220104Z AUTO 29012G19KT 10SM BKN095 BKN120 11/M02 A2986 RMK AO2 WSHFT 02 SLP115 $
  • 220056Z AUTO 32013G23KT 10SM BKN095 BKN120 12/M01 A2985 RMK AO2 PK WND 32029/28 PRESRR SLP111 T01151013 $
  • 212356Z AUTO 34014G23KT 10SM OVC090 14/01 A2977 RMK AO2 PK WND 33029/40 SLP084 60002 T01380008 10213 20138 52035 $

TAF TAF KFAF
Valid from the 22 at 02:00 until the 23 at 08:00 UTC


220200Z 2202/2308 33010G15KT 9999 FEW150 QNH2989INS
BECMG 2213/2214 29015G20KT 9999 SKC 510043 QNH3000INS
TEMPO 2220/2222 28020G30KT 520009
BECMG 2222/2223 29009KT 9999 BKN070 OVC095 510043 QNH3001INS TX14/2220Z TN05/2211Z LAST NO AMDS AFT 2202 NEXT 2210
KZDC FIR / North America



MET'MAP, your aeronautical weather chart ! - Copyright ORBIFLY December 2007 - Disclaimer

ORBIFLY MET'MAP TEAM :

Programming & Development : Alexandra Zaïnal
Concept & original design : Baudouin d'Aumeries
Assistance for programming : Marc-Olivier Méhu
Technical & hardware support : Manuel Goepfert

Contact : metmap@orbifly.com




SOURCES & CREDITS :

   NOAA       Earth
Advisory